DLH217 EGCC-EDDF
Flight info
| Callsign | DLH217 |
|---|---|
| Flight time | N/A |
| Altitude | 39000 |
| Route | DESIG L603 DOLAS DCT NAVPI DCT NOLRU DCT DIXAT DIXAT1A |
| Aircraft | A20N/M-SDE2E3FGHIRWXY/LB1 |
Departure
| Time | 2026-05-05 20:49 |
|---|---|
| Airport | Manchester Airport (EGCC) |
Arrival
| Time | N/A |
|---|---|
| Airport | Frankfurt Main Airport (EDDF) |
| Time | Latitude | Longitude | Altitude | Speed | Heading |
|---|---|---|---|---|---|
| 2026-05-05 20:43 | 53.34796 | -2.29067 | 234 ft | 0 kts | 190° |
| 2026-05-05 20:46 | 53.34795 | -2.29067 | 233 ft | 1 kts | 190° |
| 2026-05-05 20:46 | 53.34790 | -2.29068 | 234 ft | 0 kts | 186° |
| 2026-05-05 20:46 | 53.34789 | -2.29068 | 234 ft | 1 kts | 186° |
| 2026-05-05 20:47 | 53.34787 | -2.29069 | 234 ft | 2 kts | 186° |
| 2026-05-05 20:47 | 53.34743 | -2.29066 | 232 ft | 10 kts | 167° |
| 2026-05-05 20:48 | 53.34673 | -2.28997 | 234 ft | 13 kts | 119° |
| 2026-05-05 20:48 | 53.34709 | -2.28875 | 232 ft | 13 kts | 48° |
| 2026-05-05 20:48 | 53.34734 | -2.28824 | 232 ft | 0 kts | 51° |
| 2026-05-05 20:48 | 53.34736 | -2.28820 | 234 ft | 4 kts | 51° |
| 2026-05-05 20:49 | 53.34926 | -2.28426 | 236 ft | 86 kts | 51° |
| 2026-05-05 20:49 | 53.35459 | -2.27343 | 313 ft | 144 kts | 50° |
| 2026-05-05 20:49 | 53.36090 | -2.26033 | 1134 ft | 143 kts | 52° |
| 2026-05-05 20:49 | 53.36692 | -2.24728 | 2027 ft | 140 kts | 53° |
| 2026-05-05 20:50 | 53.37221 | -2.23574 | 2641 ft | 120 kts | 54° |
| 2026-05-05 20:50 | 53.37569 | -2.22805 | 2972 ft | 122 kts | 54° |
| 2026-05-05 20:50 | 53.38300 | -2.21087 | 3436 ft | 148 kts | 57° |
| 2026-05-05 20:50 | 53.38897 | -2.19612 | 3902 ft | 161 kts | 55° |
| 2026-05-05 20:51 | 53.39611 | -2.18015 | 4223 ft | 182 kts | 52° |
| 2026-05-05 20:51 | 53.40442 | -2.16264 | 4508 ft | 202 kts | 51° |
| 2026-05-05 20:51 | 53.41370 | -2.14335 | 4730 ft | 221 kts | 50° |
| 2026-05-05 20:51 | 53.42383 | -2.12227 | 4925 ft | 240 kts | 50° |
| 2026-05-05 20:52 | 53.43437 | -2.10021 | 5081 ft | 245 kts | 50° |
| 2026-05-05 20:52 | 53.44486 | -2.07818 | 5003 ft | 241 kts | 50° |
| 2026-05-05 20:52 | 53.45536 | -2.05610 | 5003 ft | 242 kts | 50° |
| 2026-05-05 20:52 | 53.46646 | -2.03282 | 5005 ft | 265 kts | 50° |
| 2026-05-05 20:53 | 53.47786 | -2.00886 | 5003 ft | 262 kts | 50° |
| 2026-05-05 20:53 | 53.48907 | -1.98528 | 5007 ft | 261 kts | 50° |
| 2026-05-05 20:53 | 53.49996 | -1.96228 | 5008 ft | 262 kts | 50° |
| 2026-05-05 20:53 | 53.50749 | -1.94643 | 5009 ft | 261 kts | 50° |
| 2026-05-05 20:54 | 53.52260 | -1.91483 | 5008 ft | 261 kts | 50° |
| 2026-05-05 20:54 | 53.53136 | -1.88830 | 5014 ft | 263 kts | 74° |
| 2026-05-05 20:54 | 53.53268 | -1.86805 | 5013 ft | 265 kts | 92° |
| 2026-05-05 20:54 | 53.52397 | -1.82951 | 5014 ft | 270 kts | 128° |
| 2026-05-05 20:55 | 53.51475 | -1.81531 | 5014 ft | 272 kts | 147° |
| 2026-05-05 20:55 | 53.49694 | -1.80471 | 5012 ft | 275 kts | 175° |
| 2026-05-05 20:55 | 53.47814 | -1.80909 | 5010 ft | 275 kts | 204° |
| 2026-05-05 20:55 | 53.46286 | -1.82722 | 5012 ft | 272 kts | 232° |
| 2026-05-05 20:56 | 53.45297 | -1.85410 | 5008 ft | 270 kts | 244° |
| 2026-05-05 20:56 | 53.44417 | -1.88190 | 5009 ft | 270 kts | 244° |
| 2026-05-05 20:56 | 53.43553 | -1.90948 | 5003 ft | 269 kts | 244° |
| 2026-05-05 20:56 | 53.42570 | -1.93656 | 5003 ft | 270 kts | 229° |
| 2026-05-05 20:57 | 53.40597 | -1.95978 | 5004 ft | 272 kts | 210° |
| 2026-05-05 20:57 | 53.39503 | -1.97008 | 5001 ft | 271 kts | 210° |
| 2026-05-05 20:57 | 53.37862 | -1.98553 | 5001 ft | 270 kts | 210° |
| 2026-05-05 20:57 | 53.36222 | -2.00096 | 5001 ft | 270 kts | 210° |
| 2026-05-05 20:58 | 53.34580 | -2.01646 | 5005 ft | 270 kts | 210° |
| 2026-05-05 20:58 | 53.32964 | -2.03175 | 5001 ft | 269 kts | 210° |
| 2026-05-05 20:58 | 53.31370 | -2.04687 | 5001 ft | 269 kts | 210° |
| 2026-05-05 20:58 | 53.29751 | -2.06245 | 4999 ft | 268 kts | 213° |
| 2026-05-05 20:59 | 53.28184 | -2.07913 | 4999 ft | 268 kts | 211° |
| 2026-05-05 20:59 | 53.26575 | -2.09515 | 5000 ft | 268 kts | 211° |
| 2026-05-05 20:59 | 53.24941 | -2.11012 | 5001 ft | 268 kts | 206° |
| 2026-05-05 20:59 | 53.23285 | -2.12472 | 5004 ft | 268 kts | 210° |
| 2026-05-05 21:00 | 53.21670 | -2.14021 | 4999 ft | 267 kts | 210° |
| 2026-05-05 21:00 | 53.20062 | -2.15572 | 4996 ft | 267 kts | 210° |
| 2026-05-05 21:00 | 53.18499 | -2.17244 | 4998 ft | 267 kts | 221° |
| 2026-05-05 21:00 | 53.17244 | -2.19530 | 5001 ft | 267 kts | 230° |
| 2026-05-05 21:01 | 53.16067 | -2.21868 | 4947 ft | 266 kts | 230° |
| 2026-05-05 21:01 | 53.14897 | -2.24275 | 4616 ft | 268 kts | 234° |
| 2026-05-05 21:01 | 53.13911 | -2.26898 | 4261 ft | 267 kts | 240° |
| 2026-05-05 21:01 | 53.12992 | -2.29605 | 4141 ft | 273 kts | 240° |
| 2026-05-05 21:02 | 53.12059 | -2.32366 | 4053 ft | 272 kts | 240° |
| 2026-05-05 21:02 | 53.11152 | -2.35052 | 4043 ft | 259 kts | 240° |
| 2026-05-05 21:02 | 53.10569 | -2.37765 | 4046 ft | 242 kts | 266° |
| 2026-05-05 21:02 | 53.10851 | -2.40389 | 4044 ft | 223 kts | 297° |
| 2026-05-05 21:03 | 53.11546 | -2.42622 | 4048 ft | 212 kts | 300° |
| 2026-05-05 21:03 | 53.12207 | -2.44688 | 4044 ft | 193 kts | 300° |
| 2026-05-05 21:03 | 53.12779 | -2.46495 | 4038 ft | 174 kts | 300° |
| 2026-05-05 21:03 | 53.13345 | -2.48293 | 4048 ft | 178 kts | 300° |
| 2026-05-05 21:04 | 53.13918 | -2.50091 | 4046 ft | 175 kts | 300° |
| 2026-05-05 21:04 | 53.14480 | -2.51870 | 4043 ft | 175 kts | 300° |
| 2026-05-05 21:04 | 53.15043 | -2.53663 | 4044 ft | 174 kts | 300° |
| 2026-05-05 21:04 | 53.15608 | -2.55447 | 4048 ft | 174 kts | 300° |
| 2026-05-05 21:05 | 53.16176 | -2.57245 | 4046 ft | 174 kts | 300° |
| 2026-05-05 21:05 | 53.16761 | -2.59014 | 4042 ft | 173 kts | 309° |
| 2026-05-05 21:05 | 53.17657 | -2.60296 | 4036 ft | 168 kts | 337° |
| 2026-05-05 21:05 | 53.18733 | -2.60676 | 3976 ft | 154 kts | 14° |
| 2026-05-05 21:06 | 53.19578 | -2.59809 | 3868 ft | 139 kts | 48° |
| 2026-05-05 21:06 | 53.20175 | -2.58554 | 3660 ft | 135 kts | 54° |
| 2026-05-05 21:06 | 53.20760 | -2.57346 | 3355 ft | 135 kts | 52° |
| 2026-05-05 21:06 | 53.21359 | -2.56161 | 3130 ft | 130 kts | 52° |
| 2026-05-05 21:07 | 53.21950 | -2.54989 | 3050 ft | 134 kts | 52° |
| 2026-05-05 21:07 | 53.22546 | -2.53793 | 3047 ft | 133 kts | 52° |
| 2026-05-05 21:07 | 53.23132 | -2.52608 | 3050 ft | 133 kts | 53° |
| 2026-05-05 21:07 | 53.23724 | -2.51402 | 3046 ft | 134 kts | 53° |
| 2026-05-05 21:08 | 53.24352 | -2.50290 | 3048 ft | 134 kts | 45° |
| 2026-05-05 21:08 | 53.25017 | -2.49186 | 3047 ft | 133 kts | 50° |
| 2026-05-05 21:08 | 53.25618 | -2.48016 | 3045 ft | 131 kts | 54° |
| 2026-05-05 21:08 | 53.26176 | -2.46833 | 2989 ft | 130 kts | 53° |
| 2026-05-05 21:09 | 53.26735 | -2.45667 | 2850 ft | 127 kts | 53° |
| 2026-05-05 21:09 | 53.27285 | -2.44513 | 2675 ft | 126 kts | 53° |
| 2026-05-05 21:09 | 53.27805 | -2.43385 | 2503 ft | 123 kts | 54° |
| 2026-05-05 21:09 | 53.28328 | -2.42238 | 2350 ft | 123 kts | 54° |
| 2026-05-05 21:10 | 53.28888 | -2.41149 | 2173 ft | 122 kts | 52° |
| 2026-05-05 21:10 | 53.29388 | -2.40035 | 2014 ft | 120 kts | 55° |
| 2026-05-05 21:10 | 53.29890 | -2.38938 | 1822 ft | 118 kts | 51° |
| 2026-05-05 21:10 | 53.30411 | -2.37874 | 1658 ft | 120 kts | 54° |
| 2026-05-05 21:11 | 53.30934 | -2.36812 | 1450 ft | 121 kts | 50° |
| 2026-05-05 21:11 | 53.31443 | -2.35736 | 1325 ft | 121 kts | 56° |
| 2026-05-05 21:11 | 53.31955 | -2.34602 | 1272 ft | 125 kts | 53° |
| 2026-05-05 21:11 | 53.32493 | -2.33464 | 989 ft | 123 kts | 52° |
| 2026-05-05 21:12 | 53.33023 | -2.32372 | 816 ft | 121 kts | 51° |
| 2026-05-05 21:12 | 53.33548 | -2.31270 | 628 ft | 123 kts | 52° |
| 2026-05-05 21:12 | 53.34075 | -2.30182 | 471 ft | 123 kts | 52° |
| 2026-05-05 21:12 | 53.34595 | -2.29098 | 311 ft | 123 kts | 52° |
| 2026-05-05 21:13 | 53.35116 | -2.28018 | 236 ft | 113 kts | 52° |
| 2026-05-05 21:13 | 53.35533 | -2.27131 | 239 ft | 75 kts | 49° |
| 2026-05-05 21:13 | 53.35780 | -2.26638 | 247 ft | 37 kts | 50° |
| 2026-05-05 21:13 | 53.35891 | -2.26423 | 252 ft | 23 kts | 50° |
| 2026-05-05 21:14 | 53.35999 | -2.26216 | 250 ft | 22 kts | 37° |
| 2026-05-05 21:14 | 53.36084 | -2.26188 | 240 ft | 5 kts | 340° |
| 2026-05-05 21:14 | 53.36139 | -2.26269 | 234 ft | 14 kts | 291° |
| 2026-05-05 21:14 | 53.36114 | -2.26373 | 235 ft | 9 kts | 233° |
| 2026-05-05 21:15 | 53.36068 | -2.26473 | 235 ft | 13 kts | 232° |
| 2026-05-05 21:15 | 53.36068 | -2.26604 | 234 ft | 12 kts | 303° |
| 2026-05-05 21:15 | 53.36116 | -2.26738 | 234 ft | 13 kts | 313° |